createdAt,value
2022-10-10T00:01:37.097Z,4.87
2022-10-10T00:04:07.109Z,3.80
2022-10-10T00:06:37.164Z,4.40
2022-10-10T00:09:06.725Z,4.07
2022-10-10T00:11:36.054Z,6.53
2022-10-10T00:14:04.509Z,4.13
2022-10-10T00:16:33.212Z,5.37
2022-10-10T00:19:01.952Z,4.13
2022-10-10T00:21:30.650Z,3.47
2022-10-10T00:24:01.509Z,4.77
2022-10-10T00:26:30.209Z,4.73
2022-10-10T00:28:58.941Z,3.97
2022-10-10T00:31:27.708Z,4.83
2022-10-10T00:33:56.091Z,4.77
2022-10-10T00:36:24.683Z,6.40
2022-10-10T00:38:53.307Z,4.20
2022-10-10T00:41:24.120Z,5.10
2022-10-10T00:44:12.403Z,3.10
2022-10-10T00:46:41.471Z,4.03
2022-10-10T00:49:15.434Z,3.80
2022-10-10T00:51:46.310Z,5.00
2022-10-10T00:54:17.290Z,5.43
2022-10-10T00:56:53.611Z,7.63
2022-10-10T00:59:23.593Z,3.47
2022-10-10T01:01:52.710Z,5.60
2022-10-10T01:04:40.564Z,5.77
2022-10-10T01:07:15.505Z,5.33
2022-10-10T01:09:46.848Z,5.10
2022-10-10T01:12:32.884Z,4.13
2022-10-10T01:15:07.668Z,4.43
2022-10-10T01:17:43.938Z,5.27
2022-10-10T01:21:14.150Z,3.50
2022-10-10T01:24:21.545Z,4.93
2022-10-10T01:27:31.199Z,6.57
2022-10-10T01:30:07.500Z,7.23
2022-10-10T01:32:47.414Z,5.17
2022-10-10T01:35:46.496Z,3.87
2022-10-10T01:38:28.120Z,7.50
2022-10-10T01:41:04.237Z,5.27
2022-10-10T01:43:33.859Z,5.70
2022-10-10T01:46:13.111Z,5.60
2022-10-10T01:48:43.103Z,3.87
2022-10-10T01:51:31.501Z,3.90
2022-10-10T01:54:21.355Z,8.10
2022-10-10T01:57:01.919Z,3.43
2022-10-10T01:59:47.753Z,4.07
2022-10-10T02:02:30.721Z,4.67
2022-10-10T02:05:05.007Z,3.97
2022-10-10T02:07:42.789Z,5.33
2022-10-10T02:10:16.948Z,5.63
2022-10-10T02:12:48.436Z,7.53
2022-10-10T02:15:22.545Z,5.03
2022-10-10T02:17:54.822Z,4.30
2022-10-10T02:20:27.045Z,4.73
2022-10-10T02:22:57.341Z,5.47
2022-10-10T02:25:30.056Z,4.07
2022-10-10T02:28:09.607Z,6.53
2022-10-10T02:30:43.808Z,3.80
2022-10-10T02:33:17.566Z,6.50
2022-10-10T02:35:50.229Z,4.40
2022-10-10T02:38:20.700Z,4.13
2022-10-10T02:40:51.270Z,5.97
2022-10-10T02:43:20.752Z,4.07
2022-10-10T02:45:49.498Z,4.47
2022-10-10T02:48:19.738Z,5.80
2022-10-10T02:50:48.402Z,4.50
2022-10-10T02:53:17.030Z,6.73
2022-10-10T02:55:45.741Z,5.47
2022-10-10T02:58:14.311Z,6.47
2022-10-10T03:00:43.016Z,3.50
2022-10-10T03:03:11.666Z,5.03
2022-10-10T03:05:41.885Z,4.33
2022-10-10T03:08:11.856Z,5.00
2022-10-10T03:10:41.529Z,3.83
2022-10-10T03:13:10.157Z,5.70
2022-10-10T03:15:38.782Z,5.53
2022-10-10T03:18:07.460Z,4.27
2022-10-10T03:20:36.086Z,4.57
2022-10-10T03:23:05.791Z,5.67
2022-10-10T03:25:34.922Z,4.90
2022-10-10T03:28:03.599Z,4.87
2022-10-10T03:30:31.891Z,4.77
2022-10-10T03:33:00.196Z,6.10
2022-10-10T03:35:28.562Z,5.43
2022-10-10T03:37:57.978Z,6.37
2022-10-10T03:40:31.295Z,4.13
2022-10-10T03:42:59.930Z,3.73
2022-10-10T03:45:28.374Z,5.77
2022-10-10T03:47:56.978Z,6.50
2022-10-10T03:50:25.678Z,7.23
2022-10-10T03:52:54.368Z,4.63
2022-10-10T03:55:22.774Z,5.63
2022-10-10T03:57:52.623Z,4.63
2022-10-10T04:00:21.277Z,4.20
2022-10-10T04:02:50.174Z,6.50
2022-10-10T04:05:19.063Z,4.47
2022-10-10T04:07:47.730Z,5.23
2022-10-10T04:10:16.446Z,5.27
2022-10-10T04:12:44.725Z,4.23
2022-10-10T04:15:14.408Z,8.10
2022-10-10T04:17:43.252Z,6.17
2022-10-10T04:20:12.059Z,5.83
2022-10-10T04:22:40.929Z,4.90
2022-10-10T04:25:10.279Z,4.30
2022-10-10T04:27:39.217Z,4.77
2022-10-10T04:30:09.061Z,4.87
2022-10-10T04:32:39.094Z,8.23
2022-10-10T04:35:08.141Z,6.43
2022-10-10T04:37:37.359Z,5.77
2022-10-10T04:40:06.408Z,5.07
2022-10-10T04:42:35.415Z,6.60
2022-10-10T04:45:03.735Z,6.03
2022-10-10T04:47:32.392Z,5.97
2022-10-10T04:50:02.065Z,6.03
2022-10-10T04:52:30.710Z,7.17
2022-10-10T04:54:59.304Z,11.10
2022-10-10T04:57:27.899Z,12.47
2022-10-10T04:59:56.542Z,8.47
2022-10-10T05:02:25.158Z,7.23
2022-10-10T05:04:53.822Z,8.07
2022-10-10T05:07:23.960Z,7.10
2022-10-10T05:09:52.586Z,10.07
2022-10-10T05:12:20.887Z,5.37
2022-10-10T05:14:49.524Z,7.50
2022-10-10T05:17:18.170Z,5.77
2022-10-10T05:19:46.612Z,6.27
2022-10-10T05:22:16.989Z,6.07
2022-10-10T05:24:47.705Z,5.73
2022-10-10T05:27:17.464Z,9.10
2022-10-10T05:29:46.127Z,8.40
2022-10-10T05:32:14.784Z,6.70
2022-10-10T05:34:43.491Z,6.47
2022-10-10T05:37:12.372Z,5.73
2022-10-10T05:39:41.024Z,8.77
2022-10-10T05:42:10.753Z,6.13
2022-10-10T05:44:39.396Z,6.87
2022-10-10T05:47:08.242Z,6.10
2022-10-10T05:49:36.952Z,7.70
2022-10-10T05:52:05.796Z,11.07
2022-10-10T05:54:34.729Z,7.40
2022-10-10T05:57:03.409Z,8.90
2022-10-10T05:59:33.122Z,10.63
2022-10-10T06:02:01.758Z,6.60
2022-10-10T06:04:30.060Z,10.03
2022-10-10T06:06:58.448Z,9.13
2022-10-10T06:09:27.054Z,10.50
2022-10-10T06:11:55.835Z,10.97
2022-10-10T06:14:24.477Z,43.47
2022-10-10T06:16:54.197Z,34.23
2022-10-10T06:19:22.877Z,30.33
2022-10-10T06:21:51.420Z,33.17
2022-10-10T06:24:19.798Z,37.03
2022-10-10T06:26:48.465Z,23.27
2022-10-10T06:29:17.092Z,32.87
2022-10-10T06:31:45.578Z,31.83
2022-10-10T06:34:15.762Z,33.43
2022-10-10T06:36:44.107Z,35.67
2022-10-10T06:39:12.812Z,28.70
2022-10-10T06:41:41.598Z,32.30
2022-10-10T06:44:12.893Z,37.83
2022-10-10T06:46:41.530Z,31.63
2022-10-10T06:49:10.283Z,26.60
2022-10-10T06:51:40.506Z,32.57
2022-10-10T06:54:08.821Z,36.07
2022-10-10T06:56:37.790Z,35.40
2022-10-10T06:59:06.542Z,43.83
2022-10-10T07:01:35.039Z,37.07
2022-10-10T07:04:03.432Z,38.07
2022-10-10T07:06:34.825Z,45.17
2022-10-10T07:09:05.114Z,40.93
2022-10-10T07:11:33.787Z,42.33
2022-10-10T07:14:02.482Z,47.80
2022-10-10T07:16:31.434Z,38.73
2022-10-10T07:18:59.714Z,34.72
2022-10-10T07:21:28.470Z,32.90
2022-10-10T07:23:56.802Z,36.55
2022-10-10T07:26:31.002Z,35.67
2022-10-10T07:28:59.535Z,35.33
2022-10-10T07:31:28.188Z,31.98
2022-10-10T07:33:56.807Z,31.50
2022-10-10T07:36:25.560Z,36.72
2022-10-10T07:38:54.894Z,33.33
2022-10-10T07:41:23.602Z,39.72
2022-10-10T07:43:57.403Z,38.20
2022-10-10T07:46:26.338Z,40.72
2022-10-10T07:48:54.634Z,34.85
2022-10-10T07:51:23.279Z,32.65
2022-10-10T07:53:53.350Z,39.42
2022-10-10T07:56:22.046Z,38.95
2022-10-10T07:58:50.701Z,38.38
2022-10-10T08:01:21.492Z,41.33
2022-10-10T08:03:49.867Z,44.10
2022-10-10T08:06:19.641Z,47.47
2022-10-10T08:08:51.867Z,43.38
2022-10-10T08:11:22.428Z,38.67
2022-10-10T08:13:51.525Z,45.47
2022-10-10T08:16:21.638Z,46.50
2022-10-10T08:18:50.211Z,56.03
2022-10-10T08:21:19.431Z,46.97
2022-10-10T08:23:48.339Z,44.17
2022-10-10T08:26:19.936Z,37.75
2022-10-10T08:28:49.185Z,47.17
2022-10-10T08:31:22.145Z,47.45
2022-10-10T08:33:52.374Z,46.22
2022-10-10T08:36:23.007Z,51.50
2022-10-10T08:38:52.666Z,51.22
2022-10-10T08:41:34.003Z,44.47
2022-10-10T08:44:11.923Z,36.28
2022-10-10T08:46:48.921Z,40.85
2022-10-10T08:49:27.797Z,37.63
2022-10-10T08:52:06.938Z,39.72
2022-10-10T08:54:38.939Z,36.75
2022-10-10T08:57:20.408Z,47.28
2022-10-10T08:59:49.921Z,39.85
2022-10-10T09:02:54.677Z,36.38
2022-10-10T09:05:58.737Z,36.60
2022-10-10T09:08:50.446Z,39.42
2022-10-10T09:11:33.813Z,37.30
2022-10-10T09:14:15.215Z,41.95
2022-10-10T09:16:54.657Z,41.22
2022-10-10T09:19:44.165Z,41.40
2022-10-10T09:22:18.835Z,35.17
2022-10-10T09:24:54.379Z,32.42
2022-10-10T09:27:29.001Z,29.98
2022-10-10T09:30:04.994Z,36.78
2022-10-10T09:32:40.476Z,29.23
2022-10-10T09:35:18.562Z,32.75
2022-10-10T09:37:49.851Z,31.77
2022-10-10T09:40:25.138Z,27.05
2022-10-10T09:42:54.424Z,32.30
2022-10-10T09:45:27.438Z,26.95
2022-10-10T09:47:57.578Z,31.50
2022-10-10T09:50:28.161Z,26.30
2022-10-10T09:52:58.827Z,28.80
2022-10-10T09:55:33.704Z,29.92
2022-10-10T09:58:13.185Z,28.33
2022-10-10T10:00:42.085Z,27.23
2022-10-10T10:03:16.969Z,31.52
2022-10-10T10:05:56.589Z,27.33
2022-10-10T10:08:29.886Z,21.40
2022-10-10T10:10:59.927Z,27.90
2022-10-10T10:13:32.785Z,24.08
2022-10-10T10:16:10.195Z,23.48
2022-10-10T10:18:43.641Z,20.27
2022-10-10T10:21:23.342Z,21.70
2022-10-10T10:23:56.245Z,22.17
2022-10-10T10:26:30.948Z,19.83
2022-10-10T10:29:00.010Z,18.05
2022-10-10T10:32:01.996Z,22.52
2022-10-10T10:35:05.411Z,18.60
2022-10-10T10:37:44.453Z,16.77
2022-10-10T10:40:30.922Z,21.05
2022-10-10T10:43:21.439Z,19.40
2022-10-10T10:46:02.092Z,15.57
2022-10-10T10:48:42.179Z,18.63
2022-10-10T10:51:34.447Z,19.05
2022-10-10T10:54:23.171Z,20.00
2022-10-10T10:57:01.927Z,21.10
2022-10-10T11:00:26.569Z,17.90
2022-10-10T11:03:05.673Z,18.60
2022-10-10T11:05:47.921Z,22.02
2022-10-10T11:08:32.342Z,17.83
2022-10-10T11:11:18.828Z,15.77
2022-10-10T11:13:57.744Z,19.35
2022-10-10T11:16:47.360Z,14.35
2022-10-10T11:19:27.992Z,17.88
2022-10-10T11:22:02.030Z,14.50
2022-10-10T11:24:41.567Z,16.60
2022-10-10T11:27:22.090Z,15.05
2022-10-10T11:30:06.682Z,12.60
2022-10-10T11:32:47.268Z,15.23
2022-10-10T11:35:25.833Z,15.15
2022-10-10T11:38:00.398Z,13.75
2022-10-10T11:40:46.181Z,16.67
2022-10-10T11:43:22.608Z,16.38
2022-10-10T11:46:02.697Z,20.05
2022-10-10T11:48:43.013Z,16.70
2022-10-10T11:51:27.174Z,16.77
2022-10-10T11:54:01.891Z,14.40
2022-10-10T11:56:38.583Z,14.90
2022-10-10T11:59:16.419Z,15.57
2022-10-10T12:01:50.797Z,16.30
2022-10-10T12:04:19.828Z,17.30
2022-10-10T12:06:54.706Z,17.60
2022-10-10T12:09:29.738Z,20.27
2022-10-10T12:12:01.442Z,19.33
2022-10-10T12:14:34.057Z,16.17
2022-10-10T12:17:02.789Z,15.18
2022-10-10T12:19:31.747Z,15.82
2022-10-10T12:22:05.671Z,17.67
2022-10-10T12:24:40.931Z,14.48
2022-10-10T12:27:29.202Z,13.73
2022-10-10T12:30:26.038Z,15.85
2022-10-10T12:32:55.387Z,16.65
2022-10-10T12:35:44.653Z,16.48
2022-10-10T12:38:19.438Z,13.82
2022-10-10T12:41:21.580Z,13.50
2022-10-10T12:43:52.682Z,15.25
2022-10-10T12:46:31.709Z,15.90
2022-10-10T12:49:16.493Z,14.93
2022-10-10T12:51:58.845Z,19.15
2022-10-10T12:54:31.495Z,15.20
2022-10-10T12:57:14.835Z,14.57
2022-10-10T12:59:43.984Z,13.98
2022-10-10T13:02:24.729Z,14.98
2022-10-10T13:04:57.246Z,15.55
2022-10-10T13:07:26.955Z,15.35
2022-10-10T13:10:06.137Z,18.42
2022-10-10T13:12:35.105Z,18.63
2022-10-10T13:15:03.829Z,18.15
2022-10-10T13:17:39.038Z,17.80
2022-10-10T13:20:26.931Z,15.93
2022-10-10T13:22:56.739Z,13.88
2022-10-10T13:25:25.716Z,12.45
2022-10-10T13:27:54.380Z,14.35
2022-10-10T13:30:26.635Z,12.05
2022-10-10T13:32:57.324Z,13.07
2022-10-10T13:35:28.914Z,13.93
2022-10-10T13:38:00.077Z,15.27
2022-10-10T13:40:29.375Z,11.90
2022-10-10T13:42:58.672Z,16.33
2022-10-10T13:45:45.015Z,14.88
2022-10-10T13:48:21.180Z,13.73
2022-10-10T13:51:08.986Z,13.88
2022-10-10T13:53:55.489Z,11.80
2022-10-10T13:56:30.804Z,11.73
2022-10-10T13:59:09.392Z,9.98
2022-10-10T14:01:40.641Z,9.45
2022-10-10T14:04:26.721Z,11.65
2022-10-10T14:07:04.753Z,13.82
2022-10-10T14:09:38.173Z,6.93
2022-10-10T14:12:16.051Z,11.88
2022-10-10T14:14:48.612Z,11.07
2022-10-10T14:17:17.884Z,9.23
2022-10-10T14:19:49.876Z,8.25
2022-10-10T14:22:19.675Z,6.57
2022-10-10T14:24:48.709Z,9.68
2022-10-10T14:27:26.019Z,5.45
2022-10-10T14:29:56.526Z,8.95
2022-10-10T14:32:26.905Z,6.32
2022-10-10T14:34:56.598Z,11.13
2022-10-10T14:37:27.739Z,9.05
2022-10-10T14:39:57.076Z,7.03
2022-10-10T14:42:27.698Z,10.32
2022-10-10T14:44:56.267Z,10.82
2022-10-10T14:47:26.159Z,8.80
2022-10-10T14:49:57.442Z,7.30
2022-10-10T14:52:26.110Z,8.90
2022-10-10T14:54:54.793Z,10.88
2022-10-10T14:57:23.460Z,10.60
2022-10-10T14:59:52.097Z,13.55
2022-10-10T15:02:22.720Z,11.73
2022-10-10T15:04:51.958Z,9.65
2022-10-10T15:07:22.024Z,10.50
2022-10-10T15:10:26.059Z,9.98
2022-10-10T15:12:43.487Z,9.05
2022-10-10T15:15:14.043Z,9.75
2022-10-10T15:17:43.206Z,7.78
2022-10-10T15:20:13.998Z,7.90
2022-10-10T15:22:45.936Z,10.93
2022-10-10T15:25:14.658Z,8.02
2022-10-10T15:27:43.273Z,7.10
2022-10-10T15:30:12.618Z,10.68
2022-10-10T15:32:42.163Z,9.23
2022-10-10T15:35:16.160Z,11.38
2022-10-10T15:37:46.885Z,15.85
2022-10-10T15:40:18.188Z,12.85
2022-10-10T15:42:47.177Z,20.77
2022-10-10T15:45:26.535Z,13.55
2022-10-10T15:48:04.997Z,14.85
2022-10-10T15:50:39.252Z,10.35
2022-10-10T15:53:09.825Z,12.25
2022-10-10T15:55:43.539Z,22.83
2022-10-10T15:58:13.233Z,14.60
2022-10-10T16:00:43.698Z,10.68
2022-10-10T16:03:12.647Z,11.15
2022-10-10T16:05:43.223Z,9.63
2022-10-10T16:08:13.229Z,8.45
2022-10-10T16:10:44.618Z,7.25
2022-10-10T16:13:13.219Z,6.43
2022-10-10T16:15:41.772Z,7.65
2022-10-10T16:18:10.217Z,7.43
2022-10-10T16:20:40.139Z,6.22
2022-10-10T16:23:08.934Z,6.35
2022-10-10T16:25:38.737Z,8.68
2022-10-10T16:28:07.528Z,9.00
2022-10-10T16:30:36.342Z,10.70
2022-10-10T16:33:04.906Z,7.28
2022-10-10T16:35:38.398Z,9.88
2022-10-10T16:38:07.109Z,10.05
2022-10-10T16:40:38.220Z,8.65
2022-10-10T16:43:07.096Z,8.98
2022-10-10T16:45:35.828Z,6.28
2022-10-10T16:48:04.191Z,8.65
2022-10-10T16:50:32.878Z,7.68
2022-10-10T16:53:01.616Z,10.18
2022-10-10T16:55:30.441Z,9.95
2022-10-10T16:58:00.290Z,6.90
2022-10-10T17:00:28.709Z,5.93
2022-10-10T17:02:57.102Z,8.70
2022-10-10T17:05:25.834Z,8.98
2022-10-10T17:07:54.546Z,8.40
2022-10-10T17:10:23.303Z,10.30
2022-10-10T17:12:52.072Z,8.38
2022-10-10T17:15:21.919Z,12.68
2022-10-10T17:17:50.644Z,9.25
2022-10-10T17:20:20.095Z,12.00
2022-10-10T17:22:48.816Z,8.10
2022-10-10T17:25:17.682Z,7.32
2022-10-10T17:27:46.421Z,9.50
2022-10-10T17:30:15.660Z,7.38
2022-10-10T17:32:45.491Z,11.98
2022-10-10T17:35:13.962Z,9.15
2022-10-10T17:37:42.629Z,7.03
2022-10-10T17:40:11.746Z,9.68
2022-10-10T17:42:40.427Z,10.25
2022-10-10T17:45:10.229Z,10.27
2022-10-10T17:47:38.912Z,11.73
2022-10-10T17:50:10.812Z,11.07
2022-10-10T17:52:39.514Z,7.97
2022-10-10T17:55:09.083Z,9.65
2022-10-10T17:57:37.717Z,7.20
2022-10-10T18:00:07.573Z,10.38
2022-10-10T18:02:36.368Z,14.00
2022-10-10T18:05:05.068Z,16.85
2022-10-10T18:07:35.008Z,12.50
2022-10-10T18:10:03.879Z,14.05
2022-10-10T18:12:32.624Z,12.40
2022-10-10T18:15:02.957Z,10.02
2022-10-10T18:17:31.398Z,12.00
2022-10-10T18:20:00.093Z,9.45
2022-10-10T18:22:28.802Z,10.90
2022-10-10T18:24:58.535Z,8.10
2022-10-10T18:27:27.317Z,9.30
2022-10-10T18:29:55.692Z,10.40
2022-10-10T18:32:24.079Z,8.10
2022-10-10T18:34:52.455Z,9.23
2022-10-10T18:37:21.156Z,11.20
2022-10-10T18:39:49.466Z,9.63
2022-10-10T18:42:19.593Z,17.00
2022-10-10T18:44:48.402Z,13.13
2022-10-10T18:47:16.755Z,12.10
2022-10-10T18:49:45.358Z,12.35
2022-10-10T18:52:13.697Z,10.90
2022-10-10T18:54:42.299Z,15.75
2022-10-10T18:57:10.935Z,15.35
2022-10-10T18:59:40.695Z,13.52
2022-10-10T19:02:11.436Z,12.65
2022-10-10T19:04:40.066Z,10.63
2022-10-10T19:07:08.724Z,11.68
2022-10-10T19:09:37.324Z,12.35
2022-10-10T19:12:06.430Z,10.43
2022-10-10T19:14:35.063Z,12.68
2022-10-10T19:17:05.033Z,10.50
2022-10-10T19:19:33.379Z,10.50
2022-10-10T19:22:02.055Z,11.15
2022-10-10T19:24:30.758Z,11.25
2022-10-10T19:26:59.371Z,10.55
2022-10-10T19:29:28.181Z,10.60
2022-10-10T19:31:57.077Z,12.30
2022-10-10T19:34:26.789Z,10.02
2022-10-10T19:36:55.192Z,11.10
2022-10-10T19:39:23.817Z,15.57
2022-10-10T19:41:52.428Z,11.38
2022-10-10T19:44:21.048Z,15.68
2022-10-10T19:46:49.737Z,13.75
2022-10-10T19:49:18.392Z,9.18
2022-10-10T19:51:48.051Z,9.65
2022-10-10T19:54:16.330Z,11.40
2022-10-10T19:56:44.625Z,10.77
2022-10-10T19:59:13.221Z,15.13
2022-10-10T20:01:41.919Z,12.60
2022-10-10T20:04:10.562Z,12.38
2022-10-10T20:06:41.187Z,12.07
2022-10-10T20:09:11.813Z,13.10
2022-10-10T20:11:41.006Z,12.27
2022-10-10T20:14:10.186Z,11.38
2022-10-10T20:16:38.530Z,10.20
2022-10-10T20:19:07.158Z,9.85
2022-10-10T20:21:36.035Z,10.75
2022-10-10T20:24:09.464Z,12.27
2022-10-10T20:26:39.295Z,11.98
2022-10-10T20:29:08.762Z,11.70
2022-10-10T20:31:38.893Z,16.20
2022-10-10T20:34:08.218Z,18.03
2022-10-10T20:36:37.095Z,12.45
2022-10-10T20:39:09.009Z,13.45
2022-10-10T20:41:39.726Z,16.25
2022-10-10T20:44:09.853Z,14.93
2022-10-10T20:46:41.356Z,12.82
2022-10-10T20:49:15.132Z,15.88
2022-10-10T20:51:48.290Z,15.57
2022-10-10T20:54:18.238Z,18.27
2022-10-10T20:56:49.719Z,16.35
2022-10-10T20:59:18.446Z,18.60
2022-10-10T21:01:47.274Z,16.25
2022-10-10T21:04:15.772Z,14.93
2022-10-10T21:06:44.659Z,14.02
2022-10-10T21:09:16.051Z,16.70
2022-10-10T21:11:48.720Z,12.98
2022-10-10T21:20:20.545Z,19.13
2022-10-10T21:22:49.272Z,17.97
2022-10-10T21:25:18.006Z,14.43
2022-10-10T21:27:49.375Z,12.47
2022-10-10T21:30:18.133Z,16.63
2022-10-10T21:32:46.737Z,12.60
2022-10-10T21:35:15.371Z,14.02
2022-10-10T21:37:45.618Z,14.10
2022-10-10T21:40:14.723Z,21.38
2022-10-10T21:42:43.478Z,16.95
2022-10-10T21:45:12.378Z,14.57
2022-10-10T21:47:43.144Z,16.90
2022-10-10T21:50:12.785Z,18.20
2022-10-10T21:52:41.402Z,18.05
2022-10-10T21:55:11.635Z,14.50
2022-10-10T21:57:39.967Z,16.58
2022-10-10T22:00:10.539Z,13.35
2022-10-10T22:02:41.027Z,13.10
2022-10-10T22:05:11.249Z,14.43
2022-10-10T22:07:40.123Z,14.68
2022-10-10T22:10:14.404Z,16.08
2022-10-10T22:12:43.500Z,15.63
2022-10-10T22:15:14.156Z,18.65
2022-10-10T22:17:42.552Z,18.67
2022-10-10T22:20:12.719Z,15.15
2022-10-10T22:22:42.987Z,18.43
2022-10-10T22:25:17.292Z,14.57
2022-10-10T22:27:46.477Z,16.13
2022-10-10T22:30:15.446Z,18.70
2022-10-10T22:32:43.753Z,15.93
2022-10-10T22:35:12.492Z,14.77
2022-10-10T22:37:41.074Z,14.57
2022-10-10T22:40:12.893Z,17.90
2022-10-10T22:42:41.550Z,13.57
2022-10-10T22:45:10.625Z,14.85
2022-10-10T22:47:39.478Z,15.75
2022-10-10T22:50:09.049Z,15.55
2022-10-10T22:52:37.722Z,16.13
2022-10-10T22:55:09.098Z,16.00
2022-10-10T22:57:39.746Z,20.45
2022-10-10T23:00:10.222Z,17.27
2022-10-10T23:02:38.481Z,21.10
2022-10-10T23:05:08.258Z,17.67
2022-10-10T23:07:37.001Z,16.50
2022-10-10T23:10:06.648Z,20.80
2022-10-10T23:12:35.281Z,16.58
2022-10-10T23:15:05.634Z,23.38
2022-10-10T23:17:33.927Z,23.27
2022-10-10T23:20:02.552Z,31.80
2022-10-10T23:22:31.347Z,24.67
2022-10-10T23:24:59.999Z,23.27
2022-10-10T23:27:28.733Z,19.92
2022-10-10T23:29:57.388Z,21.90
2022-10-10T23:32:29.358Z,18.80
2022-10-10T23:34:58.076Z,20.55
2022-10-10T23:37:27.969Z,26.58
2022-10-10T23:39:56.686Z,20.08
2022-10-10T23:42:25.332Z,23.25
2022-10-10T23:44:53.668Z,15.25
2022-10-10T23:47:22.408Z,14.45
2022-10-10T23:49:52.402Z,12.13
2022-10-10T23:52:21.088Z,18.65
2022-10-10T23:54:49.569Z,15.80
2022-10-10T23:57:18.252Z,15.73
2022-10-10T23:59:47.011Z,15.60
